Time;durP1;ratioP1;P1;durP2;ratioP2;P2;SDS_P1;SDS_P2;PMS_P1;PMS_P2;Temp;Humidity;BMP_temperature;BMP_pressure;BME280_temperature;BME280_humidity;BME280_pressure;Samples;Min_cycle;Max_cycle;Signal;HPM_P1;HPM_P2
2022/08/17 00:02:16;;;;;;;10.57;5.97;;;20.70;99.90;;;;;;5059451;28;20203;-68
2022/08/17 00:04:52;;;;;;;5.87;5.27;;;20.60;99.90;;;;;;5054784;28;20244;-68
2022/08/17 00:07:19;;;;;;;6.50;5.77;;;20.40;99.90;;;;;;5062602;28;20201;-68
2022/08/17 00:09:46;;;;;;;6.80;5.60;;;20.40;99.90;;;;;;5061560;28;20248;-68
2022/08/17 00:12:13;;;;;;;10.30;6.20;;;20.30;99.90;;;;;;5059098;28;20199;-68
2022/08/17 00:14:59;;;;;;;8.27;6.07;;;20.30;99.90;;;;;;5059662;28;20195;-67
2022/08/17 00:17:26;;;;;;;12.30;6.27;;;20.30;99.90;;;;;;5066849;28;20264;-67
2022/08/17 00:19:53;;;;;;;8.23;6.37;;;20.30;99.90;;;;;;5063750;28;20186;-68
2022/08/17 00:22:20;;;;;;;7.23;5.90;;;20.40;99.90;;;;;;5063018;28;20226;-67
2022/08/17 00:25:06;;;;;;;8.27;6.17;;;20.60;99.90;;;;;;5062783;28;20210;-67
2022/08/17 00:27:33;;;;;;;6.60;5.57;;;20.70;99.90;;;;;;5064510;28;20389;-68
2022/08/17 00:30:00;;;;;;;8.53;6.13;;;20.70;99.90;;;;;;5062917;28;20202;-67
2022/08/17 00:32:27;;;;;;;6.40;5.73;;;20.60;99.90;;;;;;5062687;28;20191;-67
2022/08/17 00:35:18;;;;;;;6.57;5.70;;;20.50;99.90;;;;;;5060020;28;20227;-67
2022/08/17 00:37:44;;;;;;;6.13;5.50;;;20.70;99.90;;;;;;5064946;28;20222;-65
2022/08/17 00:40:13;;;;;;;6.90;5.70;;;20.60;99.90;;;;;;5065925;28;20198;-68
2022/08/17 00:42:41;;;;;;;6.67;5.53;;;20.60;99.90;;;;;;5065148;28;20195;-68
2022/08/17 00:45:10;;;;;;;7.30;5.40;;;20.50;99.90;;;;;;5062090;28;20662;-66
2022/08/17 00:47:37;;;;;;;7.53;5.80;;;20.40;99.90;;;;;;5063692;28;20583;-67
2022/08/17 00:50:06;;;;;;;6.40;5.53;;;20.40;99.90;;;;;;5066046;28;20206;-67
2022/08/17 00:52:38;;;;;;;7.60;5.80;;;20.40;99.90;;;;;;5066028;28;20205;-68
2022/08/17 00:55:07;;;;;;;8.07;5.50;;;20.40;99.90;;;;;;5068280;28;20194;-65
2022/08/17 00:57:42;;;;;;;6.13;5.37;;;20.20;99.90;;;;;;5063281;28;20248;-67
2022/08/17 01:00:25;;;;;;;6.93;5.27;;;20.10;99.90;;;;;;5065487;28;20654;-68
2022/08/17 01:02:59;;;;;;;6.47;4.87;;;20.20;99.90;;;;;;5062250;28;20194;-68
2022/08/17 01:05:29;;;;;;;6.07;5.30;;;20.00;99.90;;;;;;5057583;28;20761;-65
2022/08/17 01:07:58;;;;;;;7.20;5.73;;;20.00;99.90;;;;;;5061676;28;20696;-67
2022/08/17 01:10:31;;;;;;;7.40;5.60;;;19.90;99.90;;;;;;5052139;28;20700;-67
2022/08/17 01:13:20;;;;;;;5.63;5.03;;;19.90;99.90;;;;;;5050920;28;20275;-67
2022/08/17 01:15:52;;;;;;;8.93;5.37;;;19.70;99.90;;;;;;5070081;28;20206;-68
2022/08/17 01:18:19;;;;;;;7.17;5.07;;;19.60;99.90;;;;;;5051964;28;20206;-67
2022/08/17 01:20:52;;;;;;;6.53;5.33;;;19.70;99.90;;;;;;5051658;28;20199;-67
2022/08/17 01:23:22;;;;;;;5.83;5.20;;;19.90;99.90;;;;;;5051321;28;20198;-67
2022/08/17 01:25:52;;;;;;;6.17;5.30;;;19.80;99.90;;;;;;5050712;28;20222;-67
2022/08/17 01:28:20;;;;;;;7.03;5.43;;;19.80;99.90;;;;;;5051856;28;20264;-67
2022/08/17 01:31:07;;;;;;;6.37;5.33;;;19.80;99.90;;;;;;5051634;28;20260;-67
2022/08/17 01:33:34;;;;;;;5.67;5.07;;;20.00;99.90;;;;;;5051502;28;20564;-67
2022/08/17 01:36:02;;;;;;;6.97;5.50;;;20.00;99.90;;;;;;5051372;28;20211;-67
2022/08/17 01:38:30;;;;;;;6.00;5.17;;;19.90;99.90;;;;;;5051414;28;20279;-68
2022/08/17 01:41:04;;;;;;;6.53;5.50;;;19.80;99.90;;;;;;5051512;28;20187;-67
2022/08/17 01:43:38;;;;;;;7.00;5.17;;;20.00;99.90;;;;;;5051822;28;20203;-68
2022/08/17 01:46:05;;;;;;;7.50;5.37;;;19.90;99.90;;;;;;5050926;28;20230;-68
2022/08/17 01:48:33;;;;;;;6.93;5.70;;;19.80;99.90;;;;;;5051292;28;20195;-68
2022/08/17 01:51:00;;;;;;;6.50;5.10;;;19.70;99.90;;;;;;5051673;28;20195;-67
2022/08/17 01:53:33;;;;;;;6.10;5.40;;;19.70;99.90;;;;;;5059894;28;20218;-67
2022/08/17 01:56:07;;;;;;;6.67;5.40;;;19.60;99.90;;;;;;5054318;28;20290;-68
2022/08/17 01:58:36;;;;;;;6.90;5.57;;;19.50;99.90;;;;;;5051206;28;20202;-68
2022/08/17 02:01:04;;;;;;;7.33;5.67;;;19.50;99.90;;;;;;5033908;28;20198;-67
2022/08/17 02:03:33;;;;;;;6.63;5.60;;;19.40;99.90;;;;;;5051469;28;20284;-67
2022/08/17 02:06:01;;;;;;;6.53;5.50;;;19.40;99.90;;;;;;5050731;28;20218;-67
2022/08/17 02:08:30;;;;;;;9.47;6.50;;;19.40;99.90;;;;;;5051073;28;20198;-67
2022/08/17 02:11:14;;;;;;;7.40;5.73;;;19.40;99.90;;;;;;5051228;28;20226;-67
2022/08/17 02:13:43;;;;;;;6.77;5.60;;;19.50;99.90;;;;;;5051244;28;20218;-67
2022/08/17 02:16:10;;;;;;;6.77;5.67;;;19.30;99.90;;;;;;5050533;28;20708;-68
2022/08/17 02:18:37;;;;;;;7.40;6.03;;;19.20;99.90;;;;;;5050827;28;20586;-68
2022/08/17 02:21:05;;;;;;;6.90;5.60;;;19.20;99.90;;;;;;5050628;28;20207;-68
2022/08/17 02:23:36;;;;;;;7.73;6.27;;;19.10;99.90;;;;;;5050823;28;20214;-68
2022/08/17 02:26:03;;;;;;;7.10;6.00;;;19.20;99.90;;;;;;5050405;28;20592;-68
2022/08/17 02:28:30;;;;;;;6.57;5.87;;;19.10;99.90;;;;;;5050718;28;20198;-68
2022/08/17 02:31:07;;;;;;;6.50;5.80;;;19.10;99.90;;;;;;5055011;28;20621;-68
2022/08/17 02:33:35;;;;;;;7.00;5.73;;;19.10;99.90;;;;;;5070473;28;20263;-68
2022/08/17 02:36:10;;;;;;;9.17;5.60;;;19.20;99.90;;;;;;5050090;28;20222;-67
2022/08/17 02:38:38;;;;;;;7.63;5.77;;;19.20;99.90;;;;;;5034238;28;20297;-67
2022/08/17 02:41:05;;;;;;;7.20;5.90;;;19.30;99.90;;;;;;5050601;28;20210;-67
2022/08/17 02:43:32;;;;;;;8.50;6.03;;;19.30;99.90;;;;;;5050252;28;20667;-68
2022/08/17 02:45:58;;;;;;;9.40;6.83;;;19.30;99.90;;;;;;5050156;28;20218;-66
2022/08/17 02:48:26;;;;;;;7.97;6.20;;;19.30;99.90;;;;;;5050217;28;20225;-66
2022/08/17 02:50:57;;;;;;;8.90;6.30;;;19.50;99.90;;;;;;5050210;28;20666;-67
2022/08/17 02:53:24;;;;;;;6.87;5.83;;;19.30;99.90;;;;;;5050475;28;20218;-67
2022/08/17 02:55:52;;;;;;;7.23;6.30;;;19.20;99.90;;;;;;5050024;28;20218;-67
2022/08/17 02:58:19;;;;;;;9.27;6.00;;;19.20;99.90;;;;;;5050473;28;20197;-67
2022/08/17 03:01:03;;;;;;;7.13;6.07;;;19.00;99.90;;;;;;5050277;28;20187;-67
2022/08/17 03:03:31;;;;;;;8.17;6.00;;;19.10;99.90;;;;;;5049935;28;20226;-67
2022/08/17 03:05:57;;;;;;;7.77;6.10;;;19.00;99.90;;;;;;5056609;28;20222;-66
2022/08/17 03:08:24;;;;;;;8.67;6.23;;;19.00;99.90;;;;;;5050292;28;20202;-67
2022/08/17 03:10:51;;;;;;;7.90;6.53;;;19.10;99.90;;;;;;5050079;28;20199;-67
2022/08/17 03:13:18;;;;;;;7.97;5.80;;;19.20;99.90;;;;;;5050011;28;20268;-66
2022/08/17 03:15:47;;;;;;;6.97;5.80;;;19.20;99.90;;;;;;5050845;28;21594;-67
2022/08/17 03:18:16;;;;;;;7.67;6.10;;;19.10;99.90;;;;;;5050069;28;20217;-67
2022/08/17 03:20:53;;;;;;;8.57;6.40;;;19.00;99.90;;;;;;5050180;28;20642;-67
2022/08/17 03:23:20;;;;;;;8.27;6.63;;;18.90;99.90;;;;;;5049841;28;20627;-67
2022/08/17 03:25:51;;;;;;;8.10;6.43;;;18.90;99.90;;;;;;5049770;28;20237;-67
2022/08/17 03:28:19;;;;;;;7.33;5.93;;;18.90;99.90;;;;;;5049981;28;20202;-68
2022/08/17 03:30:46;;;;;;;8.33;6.60;;;18.80;99.90;;;;;;5050338;28;20199;-68
2022/08/17 03:33:13;;;;;;;7.77;6.27;;;18.80;99.90;;;;;;5050369;28;20264;-67
2022/08/17 03:35:40;;;;;;;7.57;5.47;;;18.90;99.90;;;;;;5050212;28;20794;-67
2022/08/17 03:38:09;;;;;;;7.57;6.17;;;18.80;99.90;;;;;;5050531;28;20198;-67
2022/08/17 03:40:38;;;;;;;11.23;6.07;;;18.90;99.90;;;;;;5050139;28;20198;-67
2022/08/17 03:43:29;;;;;;;10.43;6.67;;;18.80;99.90;;;;;;5050452;28;20230;-67
2022/08/17 03:57:15;;;;;;;11.97;6.20;;;19.20;99.90;;;;;;5070448;28;20564;-67
2022/08/17 03:59:42;;;;;;;9.03;6.40;;;19.30;99.90;;;;;;5053592;28;20650;-66
2022/08/17 04:02:24;;;;;;;8.77;6.47;;;19.30;99.90;;;;;;5054194;28;20195;-67
2022/08/17 04:04:51;;;;;;;7.37;6.30;;;19.40;99.90;;;;;;5072302;28;20568;-66
2022/08/17 04:07:19;;;;;;;7.87;6.27;;;19.40;99.90;;;;;;5064725;28;20203;-65
2022/08/17 04:09:47;;;;;;;11.17;6.10;;;19.20;99.90;;;;;;5053446;28;20604;-67
2022/08/17 04:12:15;;;;;;;8.83;6.00;;;19.20;99.90;;;;;;5067072;28;20263;-67
2022/08/17 04:14:42;;;;;;;10.03;6.10;;;19.30;99.90;;;;;;5072302;28;20226;-67
2022/08/17 04:17:23;;;;;;;7.67;5.93;;;19.40;99.90;;;;;;5053190;28;20209;-67
2022/08/17 04:19:50;;;;;;;6.27;5.40;;;19.30;99.90;;;;;;5053100;28;20765;-67
2022/08/17 04:22:17;;;;;;;6.70;5.60;;;19.30;99.90;;;;;;5053329;28;20202;-67
2022/08/17 04:25:33;;;;;;;7.17;5.70;;;19.20;99.90;;;;;;5052970;28;20225;-67
2022/08/17 04:28:00;;;;;;;7.43;5.70;;;19.30;99.90;;;;;;5038177;28;20202;-68
2022/08/17 04:30:30;;;;;;;6.57;5.50;;;19.30;99.90;;;;;;5035433;28;20236;-67
2022/08/17 04:32:57;;;;;;;7.97;5.53;;;19.20;99.90;;;;;;5052993;28;20229;-67
2022/08/17 04:35:38;;;;;;;9.27;5.63;;;19.10;99.90;;;;;;5053783;28;20226;-67
2022/08/17 04:38:06;;;;;;;5.93;5.20;;;19.10;99.90;;;;;;5053404;28;20613;-68
2022/08/17 04:43:22;;;;;;;6.70;5.60;;;19.20;99.90;;;;;;5052619;28;20195;-67
2022/08/17 04:46:00;;;;;;;7.37;5.90;;;19.30;99.90;;;;;;5053280;28;20694;-67
2022/08/17 04:48:34;;;;;;;8.27;6.13;;;19.30;99.90;;;;;;5052813;28;20204;-67
2022/08/17 04:51:06;;;;;;;7.10;5.90;;;19.30;99.90;;;;;;5052676;28;20186;-66
2022/08/17 04:53:32;;;;;;;10.20;7.37;;;19.40;99.90;;;;;;5052560;28;20191;-66
2022/08/17 04:55:59;;;;;;;8.77;6.37;;;19.50;99.90;;;;;;5052018;28;20223;-67
2022/08/17 04:58:26;;;;;;;12.03;7.13;;;19.60;99.90;;;;;;5052561;28;20195;-67
2022/08/17 05:00:53;;;;;;;9.20;6.30;;;19.80;99.90;;;;;;5051672;28;20256;-66
2022/08/17 05:03:20;;;;;;;7.63;6.50;;;20.10;99.90;;;;;;5052360;28;20191;-67
2022/08/17 05:05:48;;;;;;;9.33;6.23;;;20.30;99.90;;;;;;5051744;28;20730;-67
2022/08/17 05:08:16;;;;;;;6.70;5.70;;;20.30;99.90;;;;;;5052137;28;20214;-67
2022/08/17 05:10:44;;;;;;;9.93;6.40;;;20.40;99.90;;;;;;5052128;28;20201;-67
2022/08/17 05:13:17;;;;;;;8.23;6.60;;;20.50;99.90;;;;;;5052439;28;20191;-67
2022/08/17 05:15:46;;;;;;;10.55;7.00;;;20.70;99.90;;;;;;5051705;28;20427;-67
2022/08/17 05:18:14;;;;;;;9.00;6.50;;;20.90;99.90;;;;;;5052121;28;20207;-67
2022/08/17 05:20:41;;;;;;;9.88;6.30;;;20.90;99.90;;;;;;5051665;28;20195;-68
2022/08/17 05:23:11;;;;;;;9.75;6.85;;;20.90;99.90;;;;;;5051798;28;20190;-68
2022/08/17 05:25:46;;;;;;;12.18;6.82;;;20.90;99.90;;;;;;5033851;28;20215;-67
2022/08/17 05:28:15;;;;;;;9.95;6.53;;;20.90;99.90;;;;;;5065165;28;20193;-67
2022/08/17 05:30:43;;;;;;;11.10;7.25;;;21.00;99.90;;;;;;5071716;28;20194;-68
2022/08/17 05:33:16;;;;;;;12.00;7.10;;;21.10;99.90;;;;;;5071724;28;20565;-67
2022/08/17 05:35:47;;;;;;;10.00;7.65;;;21.20;99.90;;;;;;5065019;28;20229;-66
2022/08/17 05:38:16;;;;;;;10.05;7.10;;;21.10;99.90;;;;;;5051746;28;20206;-67
2022/08/17 05:40:43;;;;;;;10.05;7.75;;;21.10;99.90;;;;;;5051810;28;20198;-68
2022/08/17 05:43:14;;;;;;;8.18;6.93;;;21.00;99.90;;;;;;5051627;28;20711;-67
2022/08/17 05:45:55;;;;;;;9.88;7.32;;;21.00;99.90;;;;;;5057315;28;20219;-68
2022/08/17 05:48:23;;;;;;;9.13;6.63;;;21.00;99.90;;;;;;5051799;28;20677;-68
2022/08/17 05:51:30;;;;;;;9.73;7.07;;;21.00;99.90;;;;;;5052139;28;20207;-68
2022/08/17 05:54:27;;;;;;;9.50;7.32;;;21.20;99.90;;;;;;5052196;28;20268;-68
2022/08/17 05:57:10;;;;;;;9.57;6.72;;;21.30;99.90;;;;;;5051145;28;20214;-68
2022/08/17 06:00:02;;;;;;;8.38;6.80;;;21.40;99.90;;;;;;5051344;28;20198;-68
2022/08/17 06:02:35;;;;;;;10.60;7.13;;;21.60;99.90;;;;;;5055750;28;20201;-68
2022/08/17 06:05:49;;;;;;;7.70;6.82;;;21.70;99.90;;;;;;5051283;28;20199;-68
2022/08/17 06:08:25;;;;;;;10.35;6.85;;;21.80;99.90;;;;;;5051100;28;20675;-66
2022/08/17 06:10:58;;;;;;;8.00;6.45;;;21.90;99.90;;;;;;5050968;28;20203;-68
2022/08/17 06:14:06;;;;;;;7.63;6.75;;;22.00;99.90;;;;;;5051253;28;20206;-67
2022/08/17 06:16:39;;;;;;;10.82;7.32;;;22.00;99.90;;;;;;5050727;28;20227;-68
2022/08/17 06:19:16;;;;;;;7.47;6.25;;;22.20;99.90;;;;;;5050823;28;20662;-68
2022/08/17 06:21:47;;;;;;;9.55;6.50;;;22.20;99.90;;;;;;5051085;28;20225;-67
2022/08/17 06:24:30;;;;;;;8.77;6.45;;;22.30;99.90;;;;;;5051021;28;20199;-67
2022/08/17 06:27:06;;;;;;;7.70;5.88;;;22.40;99.90;;;;;;5050584;28;20218;-68
2022/08/17 06:29:49;;;;;;;9.40;6.35;;;22.60;99.90;;;;;;5050749;28;20262;-68
2022/08/17 06:32:16;;;;;;;8.30;6.22;;;22.90;99.90;;;;;;5050878;28;20198;-68
2022/08/17 06:34:44;;;;;;;10.02;6.35;;;23.30;99.90;;;;;;5050412;28;20245;-67
2022/08/17 06:37:36;;;;;;;9.05;6.25;;;23.50;99.90;;;;;;5057322;28;20413;-68
2022/08/17 06:40:14;;;;;;;8.00;5.88;;;23.70;99.90;;;;;;5050367;28;20193;-68
2022/08/17 06:43:00;;;;;;;8.52;6.75;;;24.00;99.90;;;;;;5050565;28;20286;-68
2022/08/17 06:46:02;;;;;;;7.82;6.22;;;24.10;99.90;;;;;;5049777;28;20261;-69
2022/08/17 06:48:32;;;;;;;10.90;6.55;;;24.10;99.90;;;;;;5050040;28;20313;-68
2022/08/17 06:51:09;;;;;;;8.48;5.75;;;23.90;99.90;;;;;;5050130;28;20614;-68
2022/08/17 06:54:04;;;;;;;11.95;6.03;;;23.80;99.90;;;;;;5050551;28;20198;-68
2022/08/17 06:57:11;;;;;;;10.85;6.57;;;23.90;99.90;;;;;;5037807;28;20226;-68
2022/08/17 07:00:00;;;;;;;7.47;6.13;;;23.50;99.90;;;;;;5050025;28;20198;-68
2022/08/17 07:03:08;;;;;;;7.45;5.70;;;23.60;99.90;;;;;;5034607;28;20206;-68
2022/08/17 07:06:18;;;;;;;9.65;6.32;;;23.30;99.90;;;;;;5049770;28;20214;-67
2022/08/17 07:09:13;;;;;;;9.45;6.00;;;23.30;99.90;;;;;;4968802;28;20198;-67
2022/08/17 07:11:53;;;;;;;8.52;6.47;;;23.20;99.90;;;;;;5049286;28;20202;-68
2022/08/17 07:14:41;;;;;;;9.77;6.47;;;23.10;99.90;;;;;;5054410;28;20218;-67
2022/08/17 07:17:13;;;;;;;9.38;6.30;;;23.10;99.90;;;;;;5049964;28;20752;-69
2022/08/17 07:19:44;;;;;;;9.32;6.07;;;23.10;99.90;;;;;;5049821;28;20202;-68
2022/08/17 07:22:35;;;;;;;7.35;5.97;;;23.10;99.90;;;;;;5050146;28;20198;-68
2022/08/17 07:25:21;;;;;;;11.25;6.22;;;23.10;99.90;;;;;;5055132;28;20740;-68
2022/08/17 07:27:53;;;;;;;8.07;6.30;;;23.10;99.90;;;;;;5056374;28;20260;-68
2022/08/17 07:30:28;;;;;;;8.45;6.15;;;23.20;99.90;;;;;;5056679;28;20569;-67
2022/08/17 07:33:01;;;;;;;10.02;6.50;;;23.20;99.90;;;;;;5056325;28;20615;-68
2022/08/17 07:35:27;;;;;;;9.68;6.25;;;23.30;99.90;;;;;;5056178;28;20222;-67
2022/08/17 07:38:16;;;;;;;11.93;6.97;;;23.50;99.90;;;;;;5056226;28;20198;-68
2022/08/17 07:41:06;;;;;;;11.18;7.68;;;23.60;99.90;;;;;;5056500;28;20564;-68
2022/08/17 07:43:35;;;;;;;19.17;8.93;;;23.70;99.90;;;;;;5056393;28;20202;-69
2022/08/17 07:49:09;;;;;;;10.00;5.03;;;24.00;99.90;;;;;;5056399;28;20202;-68
2022/08/17 07:51:41;;;;;;;9.60;4.90;;;24.10;99.90;;;;;;5056251;28;20206;-68
2022/08/17 07:54:27;;;;;;;8.25;4.82;;;24.10;99.90;;;;;;5056243;28;20199;-68
2022/08/17 07:56:56;;;;;;;8.27;4.93;;;24.10;99.90;;;;;;5055529;28;20261;-68
2022/08/17 07:59:30;;;;;;;8.55;4.88;;;24.10;99.90;;;;;;5055994;28;20201;-68
2022/08/17 08:02:01;;;;;;;8.60;5.18;;;24.00;99.90;;;;;;5056431;28;20438;-68
2022/08/17 08:04:36;;;;;;;9.10;4.85;;;23.80;99.90;;;;;;5042187;28;20198;-68
2022/08/17 08:07:27;;;;;;;9.13;5.50;;;23.80;99.90;;;;;;5055795;28;20297;-68
2022/08/17 08:10:13;;;;;;;10.45;5.97;;;23.70;99.90;;;;;;5056290;28;20194;-68
2022/08/17 08:13:07;;;;;;;6.82;5.15;;;23.60;99.90;;;;;;5055930;28;20260;-68
2022/08/17 08:15:43;;;;;;;12.82;5.63;;;23.60;99.90;;;;;;5055576;28;20245;-68
2022/08/17 08:18:33;;;;;;;12.55;5.10;;;23.60;99.90;;;;;;5056048;28;20210;-68
2022/08/17 08:21:35;;;;;;;8.80;5.15;;;23.70;99.90;;;;;;5056245;28;20191;-68
2022/08/17 08:24:23;;;;;;;10.45;5.55;;;23.90;99.90;;;;;;5055885;28;20195;-68
2022/08/17 08:27:06;;;;;;;11.15;4.97;;;24.10;99.90;;;;;;5055916;28;20460;-68
2022/08/17 08:29:57;;;;;;;9.05;5.60;;;24.40;99.90;;;;;;5055939;28;20191;-68
2022/08/17 08:32:31;;;;;;;14.90;6.20;;;24.70;99.90;;;;;;5056386;28;20659;-69
2022/08/17 08:35:30;;;;;;;11.32;6.18;;;24.70;99.90;;;;;;5055482;28;20222;-67
2022/08/17 08:38:17;;;;;;;8.20;5.90;;;25.00;99.90;;;;;;5033674;28;20206;-67
2022/08/17 08:41:11;;;;;;;10.48;6.70;;;25.20;99.90;;;;;;5052871;28;20205;-67
2022/08/17 08:44:08;;;;;;;10.30;6.53;;;25.20;99.90;;;;;;5052564;28;20218;-67
2022/08/17 08:46:54;;;;;;;13.25;6.13;;;25.30;99.90;;;;;;5052182;28;20222;-69
2022/08/17 08:49:36;;;;;;;10.82;6.65;;;25.70;99.90;;;;;;5052354;28;20210;-69
2022/08/17 08:52:29;;;;;;;9.88;6.00;;;26.00;99.90;;;;;;5045500;28;20251;-68
2022/08/17 08:55:07;;;;;;;11.40;7.35;;;26.30;99.90;;;;;;5039714;28;20233;-68
2022/08/17 08:57:40;;;;;;;12.32;6.97;;;26.40;99.90;;;;;;5034523;28;20209;-68
2022/08/17 09:00:16;;;;;;;9.95;6.90;;;26.20;99.90;;;;;;5052500;28;20222;-68
2022/08/17 09:03:04;;;;;;;12.27;8.35;;;25.80;99.90;;;;;;5052502;28;20195;-68
2022/08/17 09:05:38;;;;;;;17.17;8.13;;;25.30;99.90;;;;;;5052117;28;20222;-68
2022/08/17 09:08:22;;;;;;;12.40;8.02;;;25.00;99.90;;;;;;5052287;28;20206;-68
2022/08/17 09:11:06;;;;;;;12.82;6.72;;;24.90;99.90;;;;;;5052164;28;20195;-68
2022/08/17 09:13:54;;;;;;;9.75;7.20;;;24.80;99.90;;;;;;5051851;28;20199;-69
2022/08/17 09:16:34;;;;;;;9.32;6.63;;;24.60;99.90;;;;;;5051267;28;20441;-68
2022/08/17 09:19:28;;;;;;;10.80;6.32;;;24.50;99.90;;;;;;5052022;28;20193;-68
2022/08/17 09:22:13;;;;;;;10.00;6.50;;;24.40;99.90;;;;;;5051731;28;20191;-67
2022/08/17 09:24:39;;;;;;;9.88;6.47;;;24.20;99.90;;;;;;5051660;28;20206;-68
2022/08/17 09:27:17;;;;;;;10.68;6.20;;;24.40;99.90;;;;;;5051691;28;20217;-68
2022/08/17 09:30:02;;;;;;;14.05;6.43;;;24.60;99.90;;;;;;5034010;28;20205;-68
2022/08/17 09:32:42;;;;;;;9.27;6.10;;;24.90;99.90;;;;;;5051580;28;20198;-67
2022/08/17 09:35:22;;;;;;;11.20;6.50;;;25.50;99.90;;;;;;5051359;28;20218;-68
2022/08/17 09:38:13;;;;;;;9.68;6.10;;;26.10;99.90;;;;;;5051359;28;20613;-68
2022/08/17 09:40:46;;;;;;;9.45;5.97;;;26.60;99.90;;;;;;5051450;28;20191;-68
2022/08/17 09:43:52;;;;;;;12.75;6.10;;;27.20;99.90;;;;;;5051730;28;20202;-68
2022/08/17 09:46:37;;;;;;;9.75;6.45;;;27.70;99.90;;;;;;5051130;28;20603;-68
2022/08/17 09:49:31;;;;;;;12.57;6.60;;;28.30;99.90;;;;;;5051556;28;20199;-69
2022/08/17 09:52:25;;;;;;;10.80;6.47;;;28.80;99.90;;;;;;5051404;28;20202;-68
2022/08/17 09:54:54;;;;;;;9.52;6.28;;;29.00;99.90;;;;;;5050886;28;20195;-66
2022/08/17 09:57:48;;;;;;;11.35;6.75;;;29.20;99.90;;;;;;5051308;28;20224;-68
2022/08/17 10:00:23;;;;;;;9.90;7.32;;;29.50;99.90;;;;;;5051064;28;20203;-69
2022/08/17 10:03:07;;;;;;;10.23;6.28;;;29.50;99.90;;;;;;5051290;28;20195;-68
2022/08/17 10:05:46;;;;;;;10.15;6.85;;;29.60;99.90;;;;;;5050730;28;20276;-69
2022/08/17 10:08:22;;;;;;;11.60;6.82;;;29.70;99.90;;;;;;5050821;28;20690;-68
2022/08/17 10:10:58;;;;;;;7.35;5.53;;;29.60;99.90;;;;;;5051033;28;20315;-69
2022/08/17 10:13:44;;;;;;;8.85;6.15;;;29.60;99.90;;;;;;5050891;28;20199;-69
2022/08/17 10:16:37;;;;;;;12.93;7.05;;;29.70;99.90;;;;;;5050404;28;20230;-68
2022/08/17 10:19:15;;;;;;;7.32;5.75;;;29.80;99.90;;;;;;5051071;28;20199;-68
2022/08/17 10:27:56;;;;;;;8.25;6.80;;;30.00;99.90;;;;;;5050757;28;20274;-69
2022/08/17 10:30:30;;;;;;;7.72;6.82;;;29.80;99.90;;;;;;5051072;28;20198;-68
2022/08/17 10:33:01;;;;;;;10.05;6.63;;;29.70;99.90;;;;;;5050958;28;20198;-68
2022/08/17 10:35:35;;;;;;;9.10;6.40;;;29.50;99.90;;;;;;5050039;28;20851;-68
2022/08/17 10:38:50;;;;;;;10.48;6.90;;;29.50;99.90;;;;;;5051287;28;20661;-68
2022/08/17 10:41:40;;;;;;;9.00;7.10;;;29.40;99.90;;;;;;5046228;28;20199;-69
2022/08/17 10:44:34;;;;;;;11.40;7.30;;;29.20;99.90;;;;;;5050697;28;20282;-69
2022/08/17 10:47:13;;;;;;;11.77;6.32;;;28.90;99.90;;;;;;5050033;28;20807;-68
2022/08/17 10:49:52;;;;;;;9.18;6.85;;;28.50;99.90;;;;;;5050051;28;20195;-68
2022/08/17 10:52:18;;;;;;;10.40;7.20;;;28.50;99.90;;;;;;5050211;28;20202;-68
2022/08/17 10:54:46;;;;;;;11.45;6.75;;;28.50;99.90;;;;;;5050076;28;20203;-68
2022/08/17 10:57:35;;;;;;;9.57;6.60;;;28.50;99.90;;;;;;5049907;28;20223;-68
2022/08/17 11:00:09;;;;;;;9.45;6.45;;;28.60;99.90;;;;;;5049184;28;20191;-69
2022/08/17 11:02:48;;;;;;;9.43;6.40;;;28.70;99.90;;;;;;5049785;28;20202;-68
2022/08/17 11:05:40;;;;;;;12.50;6.93;;;28.80;99.90;;;;;;5049494;28;20218;-68
2022/08/17 11:08:55;;;;;;;9.80;6.63;;;29.00;99.90;;;;;;5049456;28;20728;-68
2022/08/17 11:11:46;;;;;;;8.88;6.45;;;29.10;99.90;;;;;;5062598;28;20193;-68
2022/08/17 11:14:37;;;;;;;12.40;6.85;;;29.40;99.90;;;;;;5069937;28;20201;-67
2022/08/17 11:17:26;;;;;;;11.77;6.60;;;29.40;99.90;;;;;;5062884;28;20234;-68
2022/08/17 11:20:06;;;;;;;9.93;6.53;;;29.40;99.90;;;;;;5049885;28;20542;-70
2022/08/17 11:22:58;;;;;;;12.90;6.20;;;29.70;99.90;;;;;;5049853;28;20252;-68
2022/08/17 11:25:51;;;;;;;9.43;6.80;;;30.00;99.90;;;;;;5049179;28;20246;-69
2022/08/17 11:28:25;;;;;;;8.30;6.03;;;30.10;99.90;;;;;;5049996;28;20205;-69
2022/08/17 11:31:04;;;;;;;9.65;6.82;;;30.10;99.90;;;;;;5049762;28;20195;-68
2022/08/17 11:33:33;;;;;;;13.30;6.75;;;29.90;99.90;;;;;;5049676;28;20198;-68
2022/08/17 11:36:34;;;;;;;10.70;6.78;;;29.80;99.90;;;;;;5049001;28;20264;-69
2022/08/17 11:39:34;;;;;;;8.30;6.10;;;29.80;99.90;;;;;;5033073;28;20194;-70
2022/08/17 11:42:26;;;;;;;7.10;5.40;;;29.80;99.90;;;;;;5032013;28;20191;-68
2022/08/17 11:45:27;;;;;;;7.20;5.43;;;29.70;99.90;;;;;;5035371;28;20667;-67
2022/08/17 11:51:33;;;;;;;9.25;5.35;;;30.00;99.90;;;;;;5049707;28;20210;-69
2022/08/17 11:54:05;;;;;;;8.57;5.18;;;29.80;99.90;;;;;;5049322;28;20596;-68
2022/08/17 11:56:52;;;;;;;10.00;5.63;;;29.70;99.90;;;;;;5048935;28;20218;-69
2022/08/17 11:59:44;;;;;;;10.20;5.07;;;29.50;99.90;;;;;;5049630;28;20195;-69
2022/08/17 12:02:33;;;;;;;9.23;5.25;;;29.40;99.90;;;;;;5049353;28;20700;-69
2022/08/17 12:05:02;;;;;;;7.32;4.68;;;29.30;99.90;;;;;;5049251;28;20199;-68
2022/08/17 12:07:31;;;;;;;6.78;4.78;;;29.40;99.90;;;;;;5049197;28;20194;-68
2022/08/17 12:09:59;;;;;;;7.20;4.50;;;29.50;99.90;;;;;;5050025;28;20249;-69
2022/08/17 12:12:32;;;;;;;6.85;4.65;;;29.60;99.90;;;;;;5053326;28;20669;-68
2022/08/17 12:15:00;;;;;;;7.40;4.32;;;29.70;99.90;;;;;;5053077;28;20371;-68
2022/08/17 12:17:51;;;;;;;5.15;4.28;;;29.80;99.90;;;;;;5053109;28;20273;-69
2022/08/17 12:20:39;;;;;;;24.75;6.03;;;30.20;99.90;;;;;;5052991;28;20670;-69
2022/08/17 12:23:23;;;;;;;7.53;4.50;;;30.40;99.90;;;;;;5053493;28;20199;-69
2022/08/17 12:25:59;;;;;;;17.75;5.32;;;30.70;99.90;;;;;;5052632;28;20306;-69
2022/08/17 12:28:34;;;;;;;11.70;5.07;;;30.80;99.90;;;;;;5053360;28;20202;-69
2022/08/17 12:31:06;;;;;;;8.55;4.68;;;30.80;99.90;;;;;;5052819;28;20195;-68
2022/08/17 12:33:35;;;;;;;12.82;5.00;;;30.80;99.90;;;;;;5052916;28;20272;-68
2022/08/17 12:36:06;;;;;;;7.53;4.88;;;30.70;99.90;;;;;;5052441;28;20214;-68
2022/08/17 12:38:36;;;;;;;7.22;5.30;;;30.80;99.90;;;;;;5052807;28;20286;-69
2022/08/17 12:41:25;;;;;;;7.30;5.10;;;30.90;99.90;;;;;;5052735;28;20191;-69
2022/08/17 12:44:06;;;;;;;13.43;5.10;;;30.80;99.90;;;;;;5052523;28;20261;-69
2022/08/17 12:46:52;;;;;;;14.65;4.88;;;30.90;99.90;;;;;;5051899;28;20223;-69
2022/08/17 12:49:28;;;;;;;10.80;5.70;;;31.00;99.90;;;;;;5052617;28;20205;-69
2022/08/17 12:52:12;;;;;;;6.80;4.82;;;31.10;99.90;;;;;;5052400;28;20589;-68
2022/08/17 12:54:47;;;;;;;7.63;4.90;;;31.30;99.90;;;;;;5052274;28;20206;-69
2022/08/17 12:57:21;;;;;;;4.90;4.40;;;31.40;99.90;;;;;;5071883;28;20240;-69
2022/08/17 12:59:59;;;;;;;7.93;4.72;;;31.30;99.90;;;;;;5072387;28;20194;-69
2022/08/17 13:03:07;;;;;;;6.15;4.75;;;31.30;99.90;;;;;;5072436;28;20198;-69
2022/08/17 13:05:54;;;;;;;10.13;5.20;;;31.20;99.90;;;;;;5025932;28;20424;-69
2022/08/17 13:08:46;;;;;;;11.65;5.43;;;31.30;99.90;;;;;;5052321;28;20195;-69
2022/08/17 13:11:13;;;;;;;7.07;4.97;;;31.60;99.90;;;;;;5052125;28;20198;-69
2022/08/17 13:13:44;;;;;;;8.10;4.82;;;31.70;99.90;;;;;;5051697;28;20684;-67
2022/08/17 13:16:11;;;;;;;5.22;4.72;;;31.80;99.90;;;;;;5051685;28;20222;-69
2022/08/17 13:18:42;;;;;;;10.82;5.10;;;31.60;99.90;;;;;;5052121;28;20199;-69
2022/08/17 13:21:26;;;;;;;11.80;5.10;;;31.40;99.90;;;;;;5051791;28;20195;-69
2022/08/17 13:24:02;;;;;;;6.30;4.50;;;31.40;99.90;;;;;;5051287;28;20670;-69
2022/08/17 13:26:53;;;;;;;8.57;4.78;;;31.40;99.90;;;;;;5051173;28;20232;-68
2022/08/17 13:29:56;;;;;;;10.93;5.72;;;31.50;99.90;;;;;;5051987;28;20206;-69
2022/08/17 13:32:34;;;;;;;6.68;5.10;;;31.70;99.90;;;;;;5051396;28;20202;-69
2022/08/17 13:35:27;;;;;;;6.55;4.82;;;31.70;99.90;;;;;;5051797;28;20194;-69
2022/08/17 13:38:08;;;;;;;8.80;5.70;;;31.90;99.90;;;;;;5051436;28;20203;-69
2022/08/17 13:40:44;;;;;;;6.03;5.10;;;32.10;99.90;;;;;;5051388;28;20195;-68
2022/08/17 13:43:31;;;;;;;7.22;5.15;;;32.30;99.90;;;;;;5051607;28;20284;-68
2022/08/17 13:46:09;;;;;;;9.70;5.50;;;32.20;99.90;;;;;;5051079;28;20226;-69
2022/08/17 13:48:36;;;;;;;6.10;5.00;;;32.00;99.90;;;;;;5051074;28;20199;-69
2022/08/17 13:51:12;;;;;;;9.85;4.97;;;31.70;99.90;;;;;;5038538;28;20205;-69
2022/08/17 13:53:39;;;;;;;7.03;4.97;;;31.50;99.90;;;;;;5071575;28;20193;-69
2022/08/17 13:56:22;;;;;;;11.30;5.88;;;31.10;99.90;;;;;;5070909;28;20226;-69
2022/08/17 13:59:11;;;;;;;7.68;5.22;;;30.90;99.90;;;;;;5060307;28;20282;-69
2022/08/17 14:01:38;;;;;;;9.48;5.53;;;31.00;99.90;;;;;;5050840;28;20383;-68
2022/08/17 14:04:11;;;;;;;6.43;5.75;;;31.00;99.90;;;;;;5051228;28;20202;-68